Time;durP1;ratioP1;P1;durP2;ratioP2;P2;SDS_P1;SDS_P2;PMS_P1;PMS_P2;Temp;Humidity;BMP_temperature;BMP_pressure;BME280_temperature;BME280_humidity;BME280_pressure;Samples;Min_cycle;Max_cycle;Signal;HPM_P1;HPM_P2
2022/10/05 00:00:17;;;;;;;8.65;5.30;;;9.50;99.90;;;;;;5017894;28;20455;-75
2022/10/05 00:02:45;;;;;;;8.60;5.03;;;9.50;99.90;;;;;;5027709;28;20045;-74
2022/10/05 00:05:28;;;;;;;8.88;5.43;;;9.50;99.90;;;;;;5048097;28;20085;-74
2022/10/05 00:08:03;;;;;;;9.05;6.30;;;9.50;99.90;;;;;;5026374;28;20336;-78
2022/10/05 00:10:30;;;;;;;8.57;5.35;;;9.50;99.90;;;;;;5031819;28;20408;-74
2022/10/05 00:12:57;;;;;;;9.35;6.10;;;9.50;99.90;;;;;;5029231;28;20045;-73
2022/10/05 00:15:25;;;;;;;8.07;5.72;;;9.50;99.90;;;;;;5022463;28;20054;-74
2022/10/05 00:17:52;;;;;;;11.68;6.45;;;9.60;99.90;;;;;;5041170;28;20391;-73
2022/10/05 00:20:25;;;;;;;7.70;5.70;;;9.60;99.90;;;;;;5012949;28;20049;-74
2022/10/05 00:22:56;;;;;;;;;;;9.60;99.90;;;;;;5022494;28;20189;-73
2022/10/05 00:25:24;;;;;;;9.55;5.85;;;9.60;99.90;;;;;;5032172;28;19925;-74
2022/10/05 00:27:57;;;;;;;12.02;5.88;;;9.60;99.90;;;;;;5029817;28;20461;-74
2022/10/05 00:30:26;;;;;;;5.72;4.63;;;9.60;99.90;;;;;;5015619;28;20053;-75
2022/10/05 00:32:54;;;;;;;8.35;4.75;;;9.70;99.90;;;;;;5028132;28;20490;-74
2022/10/05 00:35:24;;;;;;;5.65;3.65;;;9.70;99.90;;;;;;5000334;28;20052;-74
2022/10/05 00:37:55;;;;;;;6.18;3.78;;;9.70;99.90;;;;;;5022842;28;20527;-74
2022/10/05 00:40:36;;;;;;;10.15;4.50;;;9.70;99.90;;;;;;5035868;28;20460;-74
2022/10/05 00:43:25;;;;;;;4.32;3.00;;;9.80;99.90;;;;;;5025642;28;20049;-74
2022/10/05 00:46:00;;;;;;;4.65;3.67;;;9.80;99.90;;;;;;5027093;28;20049;-74
2022/10/05 00:48:37;;;;;;;5.65;3.50;;;9.80;99.90;;;;;;5014876;28;20041;-73
2022/10/05 00:51:20;;;;;;;5.43;3.92;;;9.80;99.90;;;;;;5046887;28;20494;-74
2022/10/05 00:54:03;;;;;;;7.25;3.30;;;9.80;99.90;;;;;;5016729;28;20049;-74
2022/10/05 00:56:49;;;;;;;5.53;3.70;;;9.80;99.90;;;;;;5019242;28;20057;-74
2022/10/05 00:59:29;;;;;;;7.10;3.78;;;9.80;99.90;;;;;;5028978;28;20601;-75
2022/10/05 01:02:05;;;;;;;7.60;3.42;;;9.70;99.90;;;;;;5012715;28;20049;-75
2022/10/05 01:04:41;;;;;;;6.50;3.58;;;9.80;99.90;;;;;;5029966;28;20053;-79
2022/10/05 01:07:20;;;;;;;5.90;3.33;;;9.70;99.90;;;;;;5033397;28;20056;-78
2022/10/05 01:09:56;;;;;;;6.40;3.25;;;9.80;99.90;;;;;;5010985;28;20073;-78
2022/10/05 01:12:33;;;;;;;5.78;3.55;;;9.80;99.90;;;;;;5041308;28;20057;-78
2022/10/05 01:15:07;;;;;;;7.72;3.33;;;9.70;99.90;;;;;;5010632;28;20054;-78
2022/10/05 01:17:42;;;;;;;7.10;3.80;;;9.80;99.90;;;;;;5026964;28;20289;-79
2022/10/05 01:20:26;;;;;;;4.97;3.53;;;9.80;99.90;;;;;;5030671;28;20049;-78
2022/10/05 01:23:32;;;;;;;6.93;3.63;;;9.70;99.90;;;;;;5028506;28;20107;-79
2022/10/05 01:26:22;;;;;;;10.65;3.38;;;9.70;99.90;;;;;;5029386;28;20057;-79
2022/10/05 01:29:00;;;;;;;9.20;3.80;;;9.70;99.90;;;;;;5030003;28;20053;-79
2022/10/05 01:31:35;;;;;;;6.47;3.17;;;9.60;99.90;;;;;;5029236;28;20056;-78
2022/10/05 01:34:14;;;;;;;6.90;4.20;;;9.60;99.90;;;;;;5026530;28;20060;-79
2022/10/05 01:36:54;;;;;;;5.40;4.32;;;9.60;99.90;;;;;;5028276;28;20064;-79
2022/10/05 01:39:30;;;;;;;5.28;4.50;;;9.50;99.90;;;;;;5012288;28;20155;-80
2022/10/05 01:42:07;;;;;;;7.88;4.30;;;9.50;99.90;;;;;;5029661;28;20056;-78
2022/10/05 01:44:43;;;;;;;5.35;4.50;;;9.50;99.90;;;;;;5031069;28;20057;-79
2022/10/05 01:47:22;;;;;;;5.57;4.70;;;9.40;99.90;;;;;;5029372;28;20045;-79
2022/10/05 01:50:00;;;;;;;8.35;4.45;;;9.40;99.90;;;;;;5016305;28;20413;-78
2022/10/05 01:52:41;;;;;;;6.22;3.72;;;9.40;99.90;;;;;;5019127;28;20140;-78
2022/10/05 01:55:21;;;;;;;5.35;4.18;;;9.30;99.90;;;;;;5030112;28;20045;-77
2022/10/05 01:58:03;;;;;;;8.05;4.07;;;9.30;99.90;;;;;;5029530;28;20033;-78
2022/10/05 02:00:37;;;;;;;5.55;4.28;;;9.30;99.90;;;;;;5040093;28;20053;-77
2022/10/05 02:03:14;;;;;;;5.95;3.60;;;9.30;99.90;;;;;;5029466;28;20088;-77
2022/10/05 02:05:48;;;;;;;4.80;3.60;;;9.30;99.90;;;;;;5030090;28;20056;-78
2022/10/05 02:08:25;;;;;;;5.07;3.88;;;9.30;99.90;;;;;;5040413;28;20049;-78
2022/10/05 02:11:00;;;;;;;5.15;3.65;;;9.30;99.90;;;;;;5036459;28;20056;-78
2022/10/05 02:13:35;;;;;;;5.53;3.38;;;9.20;99.90;;;;;;5009149;28;20045;-77
2022/10/05 02:16:10;;;;;;;5.70;3.10;;;9.20;99.90;;;;;;5010745;28;20053;-77
2022/10/05 02:18:43;;;;;;;4.80;3.17;;;9.20;99.90;;;;;;5027302;28;20076;-78
2022/10/05 02:21:11;;;;;;;5.65;3.33;;;9.20;99.90;;;;;;5013880;28;20050;-78
2022/10/05 02:23:41;;;;;;;5.30;3.17;;;9.20;99.90;;;;;;5025855;28;20045;-78
2022/10/05 02:26:12;;;;;;;3.92;3.55;;;9.10;99.90;;;;;;5025281;28;20064;-78
2022/10/05 02:28:44;;;;;;;5.57;3.70;;;9.20;99.90;;;;;;5038618;28;20050;-78
2022/10/05 02:31:16;;;;;;;4.07;3.67;;;9.20;99.90;;;;;;5025253;28;20493;-78
2022/10/05 02:33:44;;;;;;;5.90;4.18;;;9.20;99.90;;;;;;5025355;28;20416;-78
2022/10/05 02:36:20;;;;;;;3.83;3.03;;;9.20;99.90;;;;;;5026291;28;20051;-78
2022/10/05 02:39:00;;;;;;;;;;;9.20;99.90;;;;;;5027010;28;20053;-78
2022/10/05 02:41:45;;;;;;;6.75;3.75;;;9.10;99.90;;;;;;5028605;28;19932;-78
2022/10/05 02:44:26;;;;;;;2.80;2.55;;;9.20;99.90;;;;;;5027725;28;20073;-77
2022/10/05 02:47:06;;;;;;;3.50;3.20;;;9.20;99.90;;;;;;5022370;28;20042;-78
2022/10/05 02:49:41;;;;;;;4.60;3.75;;;9.10;99.90;;;;;;5010660;28;20067;-78
2022/10/05 02:52:16;;;;;;;9.40;3.67;;;9.10;99.90;;;;;;5026684;28;20095;-78
2022/10/05 02:54:53;;;;;;;3.70;3.30;;;9.20;99.90;;;;;;5009897;28;20045;-74
2022/10/05 02:57:34;;;;;;;3.60;3.30;;;9.20;99.90;;;;;;5014455;28;20050;-75
2022/10/05 03:00:08;;;;;;;5.20;3.90;;;9.20;99.90;;;;;;5034413;28;20049;-74
2022/10/05 03:02:44;;;;;;;3.30;2.78;;;9.20;99.90;;;;;;5032531;28;20390;-73
2022/10/05 03:05:23;;;;;;;3.50;2.97;;;9.20;99.90;;;;;;5045794;28;20095;-74
2022/10/05 03:07:58;;;;;;;3.47;3.17;;;9.20;99.90;;;;;;5012912;28;20490;-73
2022/10/05 03:10:34;;;;;;;3.70;3.40;;;9.20;99.90;;;;;;5030410;28;20046;-78
2022/10/05 03:13:14;;;;;;;4.57;3.17;;;9.20;99.90;;;;;;5029404;28;20135;-78
2022/10/05 03:15:56;;;;;;;5.50;3.13;;;9.20;99.90;;;;;;5027119;28;20336;-78
2022/10/05 03:18:44;;;;;;;3.30;3.00;;;9.30;99.90;;;;;;5023105;28;20049;-79
2022/10/05 03:21:28;;;;;;;3.05;2.63;;;9.30;99.90;;;;;;5033183;28;20104;-78
2022/10/05 03:24:17;;;;;;;3.95;2.70;;;9.30;99.90;;;;;;5025897;28;20080;-78
2022/10/05 03:26:52;;;;;;;4.63;3.10;;;9.30;99.90;;;;;;5013305;28;20050;-78
2022/10/05 03:29:31;;;;;;;4.20;2.88;;;9.30;99.90;;;;;;5014211;28;20050;-78
2022/10/05 03:32:07;;;;;;;4.75;3.13;;;9.30;99.90;;;;;;5023429;28;20042;-77
2022/10/05 03:34:46;;;;;;;3.83;3.35;;;9.30;99.90;;;;;;5047354;28;20068;-77
2022/10/05 03:37:23;;;;;;;5.20;4.07;;;9.30;99.90;;;;;;5034395;28;20065;-79
2022/10/05 03:39:59;;;;;;;7.20;6.50;;;9.30;99.90;;;;;;5044617;28;20041;-76
2022/10/05 03:42:38;;;;;;;5.85;4.80;;;9.30;99.90;;;;;;5023887;28;20058;-77
2022/10/05 03:45:14;;;;;;;5.20;4.60;;;9.30;99.90;;;;;;5010722;28;20465;-77
2022/10/05 03:47:52;;;;;;;8.90;4.20;;;9.30;99.90;;;;;;5047938;28;20127;-78
2022/10/05 03:50:36;;;;;;;5.00;3.60;;;9.30;99.90;;;;;;5025828;28;20053;-78
2022/10/05 03:53:10;;;;;;;3.60;3.30;;;9.30;99.90;;;;;;5012025;28;20573;-79
2022/10/05 03:55:46;;;;;;;3.70;3.35;;;9.30;99.90;;;;;;5028510;28;20044;-76
2022/10/05 03:58:20;;;;;;;6.60;3.10;;;9.30;99.90;;;;;;5030115;28;20060;-78
2022/10/05 04:00:54;;;;;;;3.83;3.22;;;9.30;99.90;;;;;;5045048;28;20049;-78
2022/10/05 04:03:27;;;;;;;5.13;2.90;;;9.30;99.90;;;;;;5036024;28;20056;-78
2022/10/05 04:06:03;;;;;;;3.47;3.20;;;9.30;99.90;;;;;;5026227;28;20041;-77
2022/10/05 04:08:39;;;;;;;3.28;2.88;;;9.30;99.90;;;;;;5029708;28;20045;-77
2022/10/05 04:11:16;;;;;;;5.55;3.22;;;9.40;99.90;;;;;;5033380;28;20056;-77
2022/10/05 04:13:49;;;;;;;5.35;4.13;;;9.40;99.90;;;;;;5022353;28;20328;-77
2022/10/05 04:16:24;;;;;;;3.40;2.92;;;9.40;99.90;;;;;;5022940;28;20050;-77
2022/10/05 04:18:59;;;;;;;4.13;3.22;;;9.40;99.90;;;;;;5018038;28;20364;-77
2022/10/05 04:21:32;;;;;;;6.20;3.10;;;9.40;99.90;;;;;;5034907;28;20505;-78
2022/10/05 04:24:06;;;;;;;3.58;3.28;;;9.40;99.90;;;;;;5047474;28;20057;-79
2022/10/05 04:26:43;;;;;;;3.28;2.95;;;9.40;99.90;;;;;;5012283;28;20793;-77
2022/10/05 04:29:24;;;;;;;2.90;2.70;;;9.40;99.90;;;;;;5030583;28;20057;-75
2022/10/05 04:32:04;;;;;;;4.75;3.20;;;9.40;99.90;;;;;;5047165;28;20095;-77
2022/10/05 04:34:48;;;;;;;2.88;2.67;;;9.50;99.90;;;;;;5031273;28;20115;-78
2022/10/05 04:37:23;;;;;;;4.68;3.15;;;9.50;99.90;;;;;;5028889;28;20077;-76
2022/10/05 04:40:08;;;;;;;3.80;2.80;;;9.50;99.90;;;;;;5029944;28;20096;-75
2022/10/05 04:42:45;;;;;;;3.10;2.75;;;9.50;99.90;;;;;;5030532;28;20061;-76
2022/10/05 04:45:27;;;;;;;6.60;4.40;;;9.50;99.90;;;;;;5027755;28;20046;-75
2022/10/05 04:48:35;;;;;;;3.65;3.05;;;9.50;99.90;;;;;;5024493;28;20091;-75
2022/10/05 04:51:20;;;;;;;3.65;3.33;;;9.50;99.90;;;;;;4992645;28;20378;-77
2022/10/05 04:53:57;;;;;;;3.95;3.25;;;9.50;99.90;;;;;;5011368;28;20136;-76
2022/10/05 04:56:34;;;;;;;4.20;3.80;;;9.50;99.90;;;;;;5027328;28;20053;-77
2022/10/05 04:59:44;;;;;;;4.35;3.65;;;9.50;99.90;;;;;;5036016;28;20078;-76
2022/10/05 05:02:24;;;;;;;4.45;4.05;;;9.60;99.90;;;;;;4999428;28;20479;-80
2022/10/05 05:05:20;;;;;;;4.03;3.72;;;9.60;99.90;;;;;;5026766;28;20042;-79
2022/10/05 05:07:57;;;;;;;4.18;3.45;;;9.60;99.90;;;;;;5029404;28;20093;-80
2022/10/05 05:11:10;;;;;;;6.03;3.70;;;9.60;99.90;;;;;;5031230;28;20049;-75
2022/10/05 05:14:04;;;;;;;4.30;3.80;;;9.60;99.90;;;;;;5028386;28;20042;-75
2022/10/05 05:16:37;;;;;;;4.30;2.97;;;9.60;99.90;;;;;;5028678;28;20419;-73
2022/10/05 05:19:23;;;;;;;4.57;3.50;;;9.60;99.90;;;;;;5013894;28;20061;-76
2022/10/05 05:22:01;;;;;;;3.30;3.08;;;9.60;99.90;;;;;;5027018;28;20504;-75
2022/10/05 05:24:43;;;;;;;5.63;3.55;;;9.60;99.90;;;;;;5009586;28;20493;-74
2022/10/05 05:27:45;;;;;;;3.55;3.25;;;9.70;99.90;;;;;;5009480;28;20046;-73
2022/10/05 05:30:26;;;;;;;3.50;3.20;;;9.70;99.90;;;;;;4928869;29;20080;-74
2022/10/05 05:33:19;;;;;;;2.85;2.63;;;9.70;99.90;;;;;;5013403;28;20127;-73
2022/10/05 05:36:29;;;;;;;4.80;4.35;;;9.70;99.90;;;;;;5025604;28;20061;-74
2022/10/05 05:39:23;;;;;;;4.68;4.18;;;9.80;99.90;;;;;;5043828;28;20053;-74
2022/10/05 05:42:03;;;;;;;4.88;4.30;;;9.80;99.90;;;;;;5037388;28;20046;-75
2022/10/05 05:44:41;;;;;;;5.03;4.47;;;9.80;99.90;;;;;;5025873;28;20072;-74
2022/10/05 05:47:19;;;;;;;4.63;4.20;;;9.80;99.90;;;;;;5008801;28;20050;-73
2022/10/05 05:50:02;;;;;;;5.25;4.53;;;9.80;99.90;;;;;;5042172;28;20077;-73
2022/10/05 05:52:36;;;;;;;5.10;4.20;;;9.80;99.90;;;;;;5027032;28;20069;-75
2022/10/05 05:55:14;;;;;;;4.68;4.05;;;9.80;99.90;;;;;;5033937;28;20058;-75
2022/10/05 05:57:46;;;;;;;3.92;3.63;;;9.80;99.90;;;;;;4995456;28;20835;-75
2022/10/05 06:00:22;;;;;;;6.35;4.05;;;9.80;99.90;;;;;;5023116;28;20075;-74
2022/10/05 06:03:09;;;;;;;4.68;4.10;;;9.80;99.90;;;;;;5012984;28;20049;-74
2022/10/05 06:05:43;;;;;;;4.53;4.13;;;9.80;99.90;;;;;;5045787;28;20050;-75
2022/10/05 06:08:22;;;;;;;5.53;3.63;;;9.80;99.90;;;;;;5004868;28;20088;-73
2022/10/05 06:10:58;;;;;;;4.60;4.20;;;9.90;99.90;;;;;;5023316;28;20285;-73
2022/10/05 06:13:33;;;;;;;11.40;3.67;;;9.90;99.90;;;;;;5027864;28;20524;-73
2022/10/05 06:16:11;;;;;;;3.95;3.65;;;9.90;99.90;;;;;;5026103;28;20088;-73
2022/10/05 06:18:47;;;;;;;4.82;4.07;;;9.90;99.90;;;;;;5019260;28;20107;-77
2022/10/05 06:21:25;;;;;;;4.18;3.10;;;9.90;99.90;;;;;;5028934;28;20141;-77
2022/10/05 06:24:00;;;;;;;3.88;3.40;;;9.90;99.90;;;;;;5029543;28;20156;-77
2022/10/05 06:27:00;;;;;;;10.07;5.68;;;9.90;99.90;;;;;;5029538;28;20053;-77
2022/10/05 06:29:48;;;;;;;4.07;3.50;;;9.90;99.90;;;;;;5025450;28;20413;-77
2022/10/05 06:32:26;;;;;;;4.93;3.70;;;10.00;99.90;;;;;;5021735;28;20053;-77
2022/10/05 06:35:07;;;;;;;4.03;3.40;;;10.00;99.90;;;;;;5025812;28;20057;-78
2022/10/05 06:38:08;;;;;;;5.45;3.97;;;10.00;99.90;;;;;;5022132;28;20049;-76
2022/10/05 06:40:54;;;;;;;4.00;3.70;;;10.10;99.90;;;;;;5026807;28;20072;-77
2022/10/05 06:43:35;;;;;;;6.03;5.13;;;10.10;99.90;;;;;;5024246;28;20049;-78
2022/10/05 06:46:21;;;;;;;11.05;7.03;;;10.20;99.90;;;;;;5040517;28;20057;-77
2022/10/05 06:49:19;;;;;;;5.60;4.90;;;10.20;99.90;;;;;;5026886;28;20127;-78
2022/10/05 06:52:18;;;;;;;6.95;5.80;;;10.30;99.90;;;;;;5027029;28;20065;-78
2022/10/05 06:55:07;;;;;;;6.60;5.47;;;10.30;99.90;;;;;;5006506;28;20075;-77
2022/10/05 06:57:59;;;;;;;6.95;6.35;;;10.30;99.90;;;;;;5004559;28;20050;-78
2022/10/05 07:00:35;;;;;;;7.10;6.40;;;10.30;99.90;;;;;;5004801;28;20099;-76
2022/10/05 07:03:14;;;;;;;7.00;6.40;;;10.20;99.90;;;;;;5010333;28;20424;-76
2022/10/05 07:05:58;;;;;;;7.28;5.10;;;10.20;99.90;;;;;;5019735;28;20504;-76
2022/10/05 07:08:40;;;;;;;6.10;5.15;;;10.20;99.90;;;;;;5027005;28;20501;-76
2022/10/05 07:11:23;;;;;;;5.60;5.05;;;10.20;99.90;;;;;;5024858;28;20049;-77
2022/10/05 07:14:14;;;;;;;6.07;5.25;;;10.20;99.90;;;;;;5022126;28;20057;-77
2022/10/05 07:16:58;;;;;;;5.15;4.70;;;10.20;99.90;;;;;;5008838;28;20045;-76
2022/10/05 07:19:38;;;;;;;6.82;6.13;;;10.20;99.90;;;;;;5018299;28;20054;-79
2022/10/05 07:22:46;;;;;;;5.45;4.70;;;10.20;99.90;;;;;;5027281;28;20045;-77
2022/10/05 07:25:20;;;;;;;5.03;4.57;;;10.10;99.90;;;;;;5022881;28;20065;-77
2022/10/05 07:27:56;;;;;;;5.75;4.45;;;10.10;99.90;;;;;;5019731;28;20963;-78
2022/10/05 07:30:25;;;;;;;4.03;3.65;;;10.10;99.90;;;;;;5031713;28;20045;-79
2022/10/05 07:32:59;;;;;;;4.40;3.60;;;10.10;99.90;;;;;;5009935;28;20108;-79
2022/10/05 07:38:39;;;;;;;3.92;3.40;;;10.20;99.90;;;;;;5025110;28;20127;-77
2022/10/05 07:41:19;;;;;;;3.88;3.50;;;10.20;99.90;;;;;;5012689;28;20050;-78
2022/10/05 07:43:55;;;;;;;4.07;3.22;;;10.20;99.90;;;;;;5029208;28;20047;-79
2022/10/05 07:46:33;;;;;;;5.70;3.72;;;10.20;99.90;;;;;;5027015;28;20057;-76
2022/10/05 07:49:06;;;;;;;5.28;3.85;;;10.20;99.90;;;;;;5043109;28;20076;-78
2022/10/05 07:51:39;;;;;;;5.50;4.10;;;10.20;99.90;;;;;;4963535;28;20418;-78
2022/10/05 07:54:16;;;;;;;;;;;10.20;99.90;;;;;;5040332;28;20041;-78
2022/10/05 07:56:46;;;;;;;6.65;4.63;;;10.20;99.90;;;;;;5043260;28;19925;-78
2022/10/05 07:59:25;;;;;;;5.30;4.88;;;10.20;99.90;;;;;;5012810;28;20448;-78
2022/10/05 08:02:02;;;;;;;6.88;3.97;;;10.10;99.90;;;;;;5044931;28;20049;-78
2022/10/05 08:04:38;;;;;;;5.35;4.85;;;10.20;99.90;;;;;;5026024;28;20063;-78
2022/10/05 08:07:12;;;;;;;5.00;4.20;;;10.20;99.90;;;;;;5027549;28;20041;-78
2022/10/05 08:09:46;;;;;;;5.50;5.00;;;10.20;99.90;;;;;;5028625;28;20509;-77
2022/10/05 08:12:31;;;;;;;5.03;4.63;;;10.20;99.90;;;;;;5025175;28;20415;-78
2022/10/05 08:15:03;;;;;;;6.68;4.25;;;10.30;99.90;;;;;;5026442;28;20453;-73
2022/10/05 08:17:49;;;;;;;7.65;4.18;;;10.30;99.90;;;;;;5043103;28;20177;-74
2022/10/05 08:20:32;;;;;;;5.90;3.85;;;10.30;99.90;;;;;;5025453;28;20084;-73
2022/10/05 08:23:06;;;;;;;4.70;4.30;;;10.40;99.90;;;;;;5028036;28;20136;-73
2022/10/05 08:25:46;;;;;;;4.05;3.70;;;10.50;99.90;;;;;;5024890;28;20523;-73
2022/10/05 08:28:21;;;;;;;5.60;4.10;;;10.50;99.90;;;;;;5018833;28;20508;-73
2022/10/05 08:31:04;;;;;;;4.78;4.38;;;10.50;99.90;;;;;;5027730;28;20502;-73
2022/10/05 08:33:45;;;;;;;4.55;4.15;;;10.60;99.90;;;;;;5025692;28;20140;-74
2022/10/05 08:36:15;;;;;;;4.53;4.13;;;10.60;99.90;;;;;;5028740;28;20379;-73
2022/10/05 08:38:45;;;;;;;;;;;10.60;99.90;;;;;;5029434;28;20354;-73
2022/10/05 08:42:01;;;;;;;4.05;3.75;;;10.70;99.90;;;;;;5030073;28;19967;-73
2022/10/05 08:45:01;;;;;;;27.38;7.95;;;10.70;99.90;;;;;;5032054;28;20060;-73
2022/10/05 08:47:56;;;;;;;5.03;3.53;;;10.80;99.90;;;;;;5026433;28;20292;-73
2022/10/05 08:51:01;;;;;;;7.85;4.47;;;10.80;99.90;;;;;;5021222;28;20141;-72
2022/10/05 08:54:16;;;;;;;4.40;4.03;;;10.90;99.90;;;;;;5026581;28;20068;-73
2022/10/05 08:57:08;;;;;;;3.92;3.50;;;10.90;99.90;;;;;;5026011;28;20120;-74
2022/10/05 09:00:02;;;;;;;6.45;4.53;;;10.90;99.90;;;;;;5027503;28;20107;-73
2022/10/05 09:02:49;;;;;;;4.40;3.47;;;11.00;99.90;;;;;;5023852;28;20468;-73
2022/10/05 09:05:57;;;;;;;3.53;3.22;;;11.00;99.90;;;;;;5025579;28;20504;-73
2022/10/05 09:09:14;;;;;;;3.03;2.63;;;11.10;99.90;;;;;;5028154;28;20053;-73
2022/10/05 09:11:57;;;;;;;3.72;3.20;;;11.20;99.90;;;;;;5009704;28;20052;-75
2022/10/05 09:14:40;;;;;;;;;;;11.40;99.90;;;;;;5024826;28;20049;-74
2022/10/05 09:17:21;;;;;;;4.00;3.63;;;11.50;99.90;;;;;;5020147;28;19970;-73
2022/10/05 09:20:18;;;;;;;3.83;3.53;;;11.70;99.90;;;;;;5027568;28;20049;-73
2022/10/05 09:23:00;;;;;;;4.93;4.40;;;11.90;99.90;;;;;;5030470;28;20611;-74
2022/10/05 09:25:46;;;;;;;4.47;4.07;;;12.00;99.90;;;;;;5025135;28;20111;-74
2022/10/05 09:28:25;;;;;;;5.47;3.55;;;12.30;99.90;;;;;;5030695;28;20523;-74
2022/10/05 09:31:15;;;;;;;3.72;3.42;;;12.60;99.90;;;;;;5026284;28;20076;-73
2022/10/05 09:34:22;;;;;;;4.22;2.92;;;12.80;99.90;;;;;;5028792;28;20140;-78
2022/10/05 09:37:29;;;;;;;3.40;2.78;;;12.80;99.90;;;;;;5018328;28;20080;-79
2022/10/05 09:40:52;;;;;;;3.00;2.15;;;12.80;99.90;;;;;;5020713;28;20071;-79
2022/10/05 09:44:19;;;;;;;2.20;2.00;;;12.50;99.90;;;;;;5018397;28;20124;-80
2022/10/05 09:47:20;;;;;;;2.20;2.10;;;12.30;99.90;;;;;;4972640;28;20420;-77
2022/10/05 09:50:32;;;;;;;1.80;1.70;;;12.20;99.90;;;;;;5023628;28;20089;-77
2022/10/05 09:53:48;;;;;;;3.05;1.83;;;12.00;99.90;;;;;;5018728;28;20441;-78
2022/10/05 09:56:47;;;;;;;3.55;2.10;;;11.90;99.90;;;;;;5011472;28;20532;-78
2022/10/05 10:00:13;;;;;;;2.55;2.15;;;11.90;99.90;;;;;;5012098;28;20061;-79
2022/10/05 10:03:42;;;;;;;3.38;2.00;;;12.00;99.90;;;;;;5026014;28;20131;-75
2022/10/05 10:06:35;;;;;;;2.92;1.90;;;12.10;99.90;;;;;;5030247;28;20077;-75
2022/10/05 10:09:21;;;;;;;6.28;2.38;;;12.20;99.90;;;;;;5029323;28;20064;-76
2022/10/05 10:12:27;;;;;;;2.83;2.10;;;12.30;99.90;;;;;;5025177;28;20123;-74
2022/10/05 10:15:52;;;;;;;3.65;2.15;;;12.30;99.90;;;;;;5016140;28;20046;-73
2022/10/05 10:19:12;;;;;;;4.15;2.05;;;12.40;99.90;;;;;;5018944;28;20049;-72
2022/10/05 10:22:28;;;;;;;2.13;2.00;;;12.50;99.90;;;;;;4952483;28;20051;-73
2022/10/05 10:25:23;;;;;;;2.67;2.35;;;12.70;99.90;;;;;;5022366;28;20594;-71
2022/10/05 10:28:26;;;;;;;7.22;2.70;;;13.00;99.90;;;;;;5029631;28;20076;-71
2022/10/05 10:31:24;;;;;;;2.50;2.17;;;13.20;99.90;;;;;;5025775;28;20064;-73
2022/10/05 10:34:54;;;;;;;1.98;1.88;;;13.40;99.90;;;;;;5008537;28;20464;-72
2022/10/05 10:37:39;;;;;;;3.30;2.40;;;13.70;99.90;;;;;;4991758;28;20053;-72
2022/10/05 10:40:29;;;;;;;2.97;2.75;;;13.90;99.90;;;;;;5024269;28;20053;-73
2022/10/05 10:43:39;;;;;;;4.55;2.90;;;14.00;99.90;;;;;;5028748;28;20095;-74
2022/10/05 10:46:20;;;;;;;2.97;2.63;;;14.40;99.90;;;;;;5000993;28;20049;-73
2022/10/05 10:48:57;;;;;;;2.55;2.30;;;14.80;99.90;;;;;;5027514;28;20115;-73
2022/10/05 10:52:10;;;;;;;2.00;1.90;;;15.30;99.90;;;;;;5028054;28;20056;-74
2022/10/05 10:55:18;;;;;;;18.00;2.70;;;15.80;99.90;;;;;;5025340;28;20115;-72
2022/10/05 10:58:09;;;;;;;2.72;2.33;;;16.10;99.90;;;;;;5041757;28;20046;-72
2022/10/05 11:00:50;;;;;;;4.15;2.78;;;16.50;99.90;;;;;;5027993;28;20067;-72
2022/10/05 11:03:59;;;;;;;8.63;3.58;;;16.50;99.90;;;;;;5029619;28;20063;-71
2022/10/05 11:06:52;;;;;;;6.72;2.92;;;16.40;99.90;;;;;;5026546;28;20421;-73
2022/10/05 11:10:08;;;;;;;4.10;2.37;;;16.40;99.90;;;;;;5027882;28;20049;-72
2022/10/05 11:13:23;;;;;;;5.13;2.65;;;16.40;99.90;;;;;;4987507;28;20056;-73
2022/10/05 11:16:17;;;;;;;4.60;2.90;;;15.90;99.90;;;;;;5023422;28;20060;-74
2022/10/05 11:19:11;;;;;;;3.50;2.55;;;15.50;99.90;;;;;;5032483;28;20477;-74
2022/10/05 11:21:58;;;;;;;2.72;2.53;;;15.00;99.90;;;;;;5032861;28;20050;-73
2022/10/05 11:25:03;;;;;;;2.38;2.28;;;14.60;99.90;;;;;;5031814;28;20045;-73
2022/10/05 11:27:51;;;;;;;5.30;2.83;;;14.30;99.90;;;;;;5030677;28;20042;-73
2022/10/05 11:31:07;;;;;;;4.15;2.10;;;14.10;99.90;;;;;;5032012;28;20083;-73
2022/10/05 11:34:25;;;;;;;4.50;3.28;;;14.10;99.90;;;;;;5010284;28;20080;-71
2022/10/05 11:37:40;;;;;;;3.55;2.58;;;14.20;99.90;;;;;;5024076;28;20041;-72
2022/10/05 11:41:04;;;;;;;2.85;2.40;;;14.00;99.90;;;;;;4985137;28;20057;-76
2022/10/05 11:44:34;;;;;;;3.85;2.55;;;13.80;99.90;;;;;;5027457;28;20042;-72
2022/10/05 11:47:09;;;;;;;3.40;2.25;;;13.50;99.90;;;;;;5029460;28;20568;-72
2022/10/05 11:49:45;;;;;;;2.55;2.35;;;13.30;99.90;;;;;;5027132;28;20041;-77
2022/10/05 11:52:21;;;;;;;4.22;1.98;;;13.20;99.90;;;;;;5037299;28;20069;-76
2022/10/05 11:55:13;;;;;;;6.90;2.45;;;13.00;99.90;;;;;;5024855;28;20042;-72
2022/10/05 11:57:53;;;;;;;3.30;2.05;;;13.00;99.90;;;;;;5028958;28;20489;-73
2022/10/05 12:00:24;;;;;;;8.20;6.75;;;13.00;99.90;;;;;;5009239;28;20045;-72
2022/10/05 12:03:24;;;;;;;7.68;5.10;;;12.90;99.90;;;;;;5025686;28;20140;-76
2022/10/05 12:06:26;;;;;;;6.70;4.82;;;12.80;99.90;;;;;;5024789;28;20512;-77
2022/10/05 12:09:13;;;;;;;4.15;3.00;;;12.80;99.90;;;;;;5027282;28;20537;-76
2022/10/05 12:11:57;;;;;;;6.93;3.13;;;12.70;99.90;;;;;;5027909;28;20037;-77
2022/10/05 12:14:39;;;;;;;3.30;3.10;;;12.70;99.90;;;;;;5030217;28;20049;-71
2022/10/05 12:17:18;;;;;;;8.47;3.27;;;12.60;99.90;;;;;;5028130;28;20057;-71
2022/10/05 12:19:54;;;;;;;3.85;3.28;;;12.60;99.90;;;;;;5023370;28;20313;-72
2022/10/05 12:22:28;;;;;;;7.80;3.70;;;12.60;99.90;;;;;;5021979;28;20077;-73
2022/10/05 12:25:20;;;;;;;3.45;3.15;;;12.60;99.90;;;;;;5023366;28;20611;-71
2022/10/05 12:27:51;;;;;;;2.85;2.60;;;12.50;99.90;;;;;;5042668;28;20081;-71
2022/10/05 12:30:30;;;;;;;2.95;2.70;;;12.50;99.90;;;;;;5028698;28;20100;-72
2022/10/05 12:33:06;;;;;;;5.80;3.10;;;12.50;99.90;;;;;;5023739;28;20298;-73
2022/10/05 12:35:42;;;;;;;9.48;5.30;;;12.50;99.90;;;;;;5021707;28;20610;-72
2022/10/05 12:38:20;;;;;;;3.30;3.00;;;12.50;99.90;;;;;;5033783;28;20060;-73
2022/10/05 12:40:59;;;;;;;4.38;3.72;;;12.40;99.90;;;;;;5024753;28;20054;-72
2022/10/05 12:43:37;;;;;;;3.50;3.20;;;12.50;99.90;;;;;;5015486;28;20045;-71
2022/10/05 12:46:16;;;;;;;6.30;3.53;;;12.40;99.90;;;;;;5019630;28;20053;-75
2022/10/05 12:49:22;;;;;;;3.75;3.05;;;12.40;99.90;;;;;;5027446;28;20054;-78
2022/10/05 12:51:57;;;;;;;3.85;3.38;;;12.40;99.90;;;;;;5023323;28;20221;-73
2022/10/05 12:54:40;;;;;;;4.07;3.67;;;12.40;99.90;;;;;;5028210;28;20049;-73
2022/10/05 12:57:18;;;;;;;3.65;3.00;;;12.40;99.90;;;;;;5027760;28;20131;-77
2022/10/05 12:59:56;;;;;;;4.50;3.00;;;12.40;99.90;;;;;;5027472;28;20049;-77
2022/10/05 13:02:41;;;;;;;6.10;2.65;;;12.40;99.90;;;;;;5028776;28;20136;-78
2022/10/05 13:05:23;;;;;;;4.53;2.92;;;12.50;99.90;;;;;;5022806;28;20068;-77
2022/10/05 13:08:17;;;;;;;4.50;2.73;;;12.40;99.90;;;;;;5026909;28;20122;-80
2022/10/05 13:10:49;;;;;;;2.83;2.50;;;12.40;99.90;;;;;;5013192;28;20061;-78
2022/10/05 13:13:39;;;;;;;5.03;2.80;;;12.40;99.90;;;;;;5026986;28;20049;-80
2022/10/05 13:16:19;;;;;;;3.25;3.03;;;12.30;99.90;;;;;;5024170;28;20111;-78
2022/10/05 13:19:01;;;;;;;2.95;2.75;;;12.30;99.90;;;;;;5030818;28;20056;-79
2022/10/05 13:21:53;;;;;;;3.95;3.63;;;12.20;99.90;;;;;;5019449;28;20630;-78
2022/10/05 13:24:25;;;;;;;5.50;3.00;;;12.30;99.90;;;;;;5032189;28;20552;-78
2022/10/05 13:26:59;;;;;;;4.60;2.72;;;12.20;99.90;;;;;;5030066;28;20473;-78
2022/10/05 13:29:36;;;;;;;8.65;2.75;;;12.20;99.90;;;;;;5025638;28;20151;-77
2022/10/05 13:32:13;;;;;;;3.55;3.25;;;12.10;99.90;;;;;;5020942;28;20059;-79
2022/10/05 13:34:50;;;;;;;4.20;3.22;;;12.10;99.90;;;;;;5027519;28;20038;-79
2022/10/05 13:37:30;;;;;;;6.10;4.97;;;12.00;99.90;;;;;;5025340;28;20090;-78
2022/10/05 13:40:13;;;;;;;3.83;3.53;;;12.00;99.90;;;;;;5024522;28;20103;-77
2022/10/05 13:42:47;;;;;;;3.45;3.15;;;11.90;99.90;;;;;;5028119;28;20071;-77
2022/10/05 13:45:21;;;;;;;6.03;3.47;;;11.90;99.90;;;;;;5024006;28;20061;-77
2022/10/05 13:48:07;;;;;;;3.58;3.10;;;11.90;99.90;;;;;;5025924;28;20049;-79
2022/10/05 13:50:41;;;;;;;6.28;3.03;;;11.90;99.90;;;;;;5024347;28;20042;-78
2022/10/05 13:53:20;;;;;;;6.68;2.70;;;11.90;99.90;;;;;;5028445;28;20060;-72
2022/10/05 13:55:57;;;;;;;5.85;2.97;;;11.80;99.90;;;;;;5024422;28;20140;-72
2022/10/05 13:58:35;;;;;;;5.40;2.40;;;11.80;99.90;;;;;;5020855;28;20071;-71
2022/10/05 14:01:14;;;;;;;7.50;2.70;;;11.70;99.90;;;;;;5029985;28;20406;-78
2022/10/05 14:04:06;;;;;;;5.78;2.67;;;11.70;99.90;;;;;;5048251;28;20045;-76
2022/10/05 14:06:37;;;;;;;3.07;2.43;;;11.70;99.90;;;;;;5021540;28;20072;-79
2022/10/05 14:09:11;;;;;;;6.50;4.57;;;11.70;99.90;;;;;;5034512;28;20076;-73
2022/10/05 14:11:50;;;;;;;5.07;2.55;;;11.70;99.90;;;;;;5023125;28;20049;-78
2022/10/05 14:14:27;;;;;;;2.40;2.17;;;11.60;99.90;;;;;;5021866;28;20055;-80
2022/10/05 14:16:58;;;;;;;6.72;3.38;;;11.60;99.90;;;;;;5022408;28;20045;-79
2022/10/05 14:19:31;;;;;;;4.53;2.22;;;11.60;99.90;;;;;;5027137;28;20099;-77
2022/10/05 14:22:02;;;;;;;7.88;3.00;;;11.60;99.90;;;;;;5026871;28;20041;-77